sensor_id;sensor_type;location;lat;lon;timestamp;temperature;humidity
19397;DHT22;9834;48.076;11.878;2022-11-04T00:01:30;11.30;99.90
19397;DHT22;9834;48.076;11.878;2022-11-04T00:03:57;11.40;99.90
19397;DHT22;9834;48.076;11.878;2022-11-04T00:06:25;11.50;99.90
19397;DHT22;9834;48.076;11.878;2022-11-04T00:08:53;11.60;99.90
19397;DHT22;9834;48.076;11.878;2022-11-04T00:11:21;11.70;99.90
19397;DHT22;9834;48.076;11.878;2022-11-04T00:14:07;11.70;99.90
19397;DHT22;9834;48.076;11.878;2022-11-04T00:16:34;11.70;99.90
19397;DHT22;9834;48.076;11.878;2022-11-04T00:19:19;11.70;99.90
19397;DHT22;9834;48.076;11.878;2022-11-04T00:21:47;11.70;99.90
19397;DHT22;9834;48.076;11.878;2022-11-04T00:24:32;11.70;99.90
19397;DHT22;9834;48.076;11.878;2022-11-04T00:27:18;11.70;99.90
19397;DHT22;9834;48.076;11.878;2022-11-04T00:30:17;11.70;99.90
19397;DHT22;9834;48.076;11.878;2022-11-04T00:32:44;11.70;99.90
19397;DHT22;9834;48.076;11.878;2022-11-04T00:35:28;11.70;99.90
19397;DHT22;9834;48.076;11.878;2022-11-04T00:37:56;11.70;99.90
19397;DHT22;9834;48.076;11.878;2022-11-04T00:40:23;11.70;99.90
19397;DHT22;9834;48.076;11.878;2022-11-04T00:42:50;11.60;99.90
19397;DHT22;9834;48.076;11.878;2022-11-04T00:45:17;11.50;99.90
19397;DHT22;9834;48.076;11.878;2022-11-04T00:47:44;11.30;99.90
19397;DHT22;9834;48.076;11.878;2022-11-04T00:50:11;11.10;99.90
19397;DHT22;9834;48.076;11.878;2022-11-04T00:52:38;10.90;99.90
19397;DHT22;9834;48.076;11.878;2022-11-04T00:55:07;10.70;99.90
19397;DHT22;9834;48.076;11.878;2022-11-04T00:57:34;10.40;99.90
19397;DHT22;9834;48.076;11.878;2022-11-04T01:00:01;10.20;99.90
19397;DHT22;9834;48.076;11.878;2022-11-04T01:02:28;10.00;99.90
19397;DHT22;9834;48.076;11.878;2022-11-04T01:04:55;9.80;99.90
19397;DHT22;9834;48.076;11.878;2022-11-04T01:07:22;9.70;99.90
19397;DHT22;9834;48.076;11.878;2022-11-04T01:09:49;9.50;99.90
19397;DHT22;9834;48.076;11.878;2022-11-04T01:12:17;9.40;99.90
19397;DHT22;9834;48.076;11.878;2022-11-04T01:14:44;9.30;99.90
19397;DHT22;9834;48.076;11.878;2022-11-04T01:17:14;9.30;99.90
19397;DHT22;9834;48.076;11.878;2022-11-04T01:19:41;9.20;99.90
19397;DHT22;9834;48.076;11.878;2022-11-04T01:22:08;9.10;99.90
19397;DHT22;9834;48.076;11.878;2022-11-04T01:24:35;9.00;99.90
19397;DHT22;9834;48.076;11.878;2022-11-04T01:27:02;9.00;99.90
19397;DHT22;9834;48.076;11.878;2022-11-04T01:29:30;9.00;99.90
19397;DHT22;9834;48.076;11.878;2022-11-04T01:31:57;8.90;99.90
19397;DHT22;9834;48.076;11.878;2022-11-04T01:34:24;8.90;99.90
19397;DHT22;9834;48.076;11.878;2022-11-04T01:36:51;8.90;99.90
19397;DHT22;9834;48.076;11.878;2022-11-04T01:39:18;8.80;99.90
19397;DHT22;9834;48.076;11.878;2022-11-04T01:41:44;8.80;99.90
19397;DHT22;9834;48.076;11.878;2022-11-04T01:47:34;8.80;99.90
19397;DHT22;9834;48.076;11.878;2022-11-04T01:50:07;8.70;99.90
19397;DHT22;9834;48.076;11.878;2022-11-04T01:52:38;8.60;99.90
19397;DHT22;9834;48.076;11.878;2022-11-04T01:55:11;8.60;99.90
19397;DHT22;9834;48.076;11.878;2022-11-04T01:57:41;8.60;99.90
19397;DHT22;9834;48.076;11.878;2022-11-04T02:00:12;8.50;99.90
19397;DHT22;9834;48.076;11.878;2022-11-04T02:02:49;8.50;99.90
19397;DHT22;9834;48.076;11.878;2022-11-04T02:05:17;8.50;99.90
19397;DHT22;9834;48.076;11.878;2022-11-04T02:07:47;8.50;99.90
19397;DHT22;9834;48.076;11.878;2022-11-04T02:10:15;8.50;99.90
19397;DHT22;9834;48.076;11.878;2022-11-04T02:12:43;8.40;99.90
19397;DHT22;9834;48.076;11.878;2022-11-04T02:15:15;8.40;99.90
19397;DHT22;9834;48.076;11.878;2022-11-04T02:18:07;8.40;99.90
19397;DHT22;9834;48.076;11.878;2022-11-04T02:20:47;8.40;99.90
19397;DHT22;9834;48.076;11.878;2022-11-04T02:23:51;8.40;99.90
19397;DHT22;9834;48.076;11.878;2022-11-04T02:26:50;8.40;99.90
19397;DHT22;9834;48.076;11.878;2022-11-04T02:32:18;8.30;99.90
19397;DHT22;9834;48.076;11.878;2022-11-04T02:34:54;8.30;99.90
19397;DHT22;9834;48.076;11.878;2022-11-04T02:37:30;8.30;99.90
19397;DHT22;9834;48.076;11.878;2022-11-04T02:40:07;8.30;99.90
19397;DHT22;9834;48.076;11.878;2022-11-04T02:42:38;8.30;99.90
19397;DHT22;9834;48.076;11.878;2022-11-04T02:45:15;8.30;99.90
19397;DHT22;9834;48.076;11.878;2022-11-04T02:47:47;8.30;99.90
19397;DHT22;9834;48.076;11.878;2022-11-04T02:50:21;8.20;99.90
19397;DHT22;9834;48.076;11.878;2022-11-04T02:52:55;8.20;99.90
19397;DHT22;9834;48.076;11.878;2022-11-04T02:55:25;8.30;99.90
19397;DHT22;9834;48.076;11.878;2022-11-04T02:57:56;8.20;99.90
19397;DHT22;9834;48.076;11.878;2022-11-04T03:00:27;8.20;99.90
19397;DHT22;9834;48.076;11.878;2022-11-04T03:02:58;8.20;99.90
19397;DHT22;9834;48.076;11.878;2022-11-04T03:05:29;8.20;99.90
19397;DHT22;9834;48.076;11.878;2022-11-04T03:07:59;8.20;99.90
19397;DHT22;9834;48.076;11.878;2022-11-04T03:10:33;8.20;99.90
19397;DHT22;9834;48.076;11.878;2022-11-04T03:13:04;8.10;99.90
19397;DHT22;9834;48.076;11.878;2022-11-04T03:15:34;8.10;99.90
19397;DHT22;9834;48.076;11.878;2022-11-04T03:18:11;8.10;99.90
19397;DHT22;9834;48.076;11.878;2022-11-04T03:20:40;8.10;99.90
19397;DHT22;9834;48.076;11.878;2022-11-04T03:23:08;8.10;99.90
19397;DHT22;9834;48.076;11.878;2022-11-04T03:25:39;8.10;99.90
19397;DHT22;9834;48.076;11.878;2022-11-04T03:28:17;8.10;99.90
19397;DHT22;9834;48.076;11.878;2022-11-04T03:30:48;8.10;99.90
19397;DHT22;9834;48.076;11.878;2022-11-04T03:33:19;8.10;99.90
19397;DHT22;9834;48.076;11.878;2022-11-04T03:35:47;8.10;99.90
19397;DHT22;9834;48.076;11.878;2022-11-04T03:38:14;8.20;99.90
19397;DHT22;9834;48.076;11.878;2022-11-04T03:40:41;8.20;99.90
19397;DHT22;9834;48.076;11.878;2022-11-04T03:43:10;8.20;99.90
19397;DHT22;9834;48.076;11.878;2022-11-04T03:45:39;8.10;99.90
19397;DHT22;9834;48.076;11.878;2022-11-04T03:48:09;8.10;99.90
19397;DHT22;9834;48.076;11.878;2022-11-04T03:50:40;8.10;99.90
19397;DHT22;9834;48.076;11.878;2022-11-04T03:53:12;8.10;99.90
19397;DHT22;9834;48.076;11.878;2022-11-04T03:56:02;8.10;99.90
19397;DHT22;9834;48.076;11.878;2022-11-04T03:58:39;8.10;99.90
19397;DHT22;9834;48.076;11.878;2022-11-04T04:01:15;8.10;99.90
19397;DHT22;9834;48.076;11.878;2022-11-04T04:03:51;8.10;99.90
19397;DHT22;9834;48.076;11.878;2022-11-04T04:06:25;8.10;99.90
19397;DHT22;9834;48.076;11.878;2022-11-04T04:08:56;8.10;99.90
19397;DHT22;9834;48.076;11.878;2022-11-04T04:11:30;8.10;99.90
19397;DHT22;9834;48.076;11.878;2022-11-04T04:14:04;8.10;99.90
19397;DHT22;9834;48.076;11.878;2022-11-04T04:16:35;8.10;99.90
19397;DHT22;9834;48.076;11.878;2022-11-04T04:19:09;8.00;99.90
19397;DHT22;9834;48.076;11.878;2022-11-04T04:21:41;8.00;99.90
19397;DHT22;9834;48.076;11.878;2022-11-04T04:24:10;8.00;99.90
19397;DHT22;9834;48.076;11.878;2022-11-04T04:26:55;8.00;99.90
19397;DHT22;9834;48.076;11.878;2022-11-04T04:29:42;8.00;99.90
19397;DHT22;9834;48.076;11.878;2022-11-04T04:32:10;7.90;99.90
19397;DHT22;9834;48.076;11.878;2022-11-04T04:34:38;8.00;99.90
19397;DHT22;9834;48.076;11.878;2022-11-04T04:37:08;8.00;99.90
19397;DHT22;9834;48.076;11.878;2022-11-04T04:39:40;8.00;99.90
19397;DHT22;9834;48.076;11.878;2022-11-04T04:42:25;7.90;99.90
19397;DHT22;9834;48.076;11.878;2022-11-04T04:45:27;7.90;99.90
19397;DHT22;9834;48.076;11.878;2022-11-04T04:48:24;8.00;99.90
19397;DHT22;9834;48.076;11.878;2022-11-04T04:51:09;8.00;99.90
19397;DHT22;9834;48.076;11.878;2022-11-04T04:53:36;8.00;99.90
19397;DHT22;9834;48.076;11.878;2022-11-04T04:56:03;8.00;99.90
19397;DHT22;9834;48.076;11.878;2022-11-04T04:58:30;8.00;99.90
19397;DHT22;9834;48.076;11.878;2022-11-04T05:01:11;8.10;99.90
19397;DHT22;9834;48.076;11.878;2022-11-04T05:03:38;8.00;99.90
19397;DHT22;9834;48.076;11.878;2022-11-04T05:06:05;8.00;99.90
19397;DHT22;9834;48.076;11.878;2022-11-04T05:08:34;8.00;99.90
19397;DHT22;9834;48.076;11.878;2022-11-04T05:11:01;8.00;99.90
19397;DHT22;9834;48.076;11.878;2022-11-04T05:13:28;8.00;99.90
19397;DHT22;9834;48.076;11.878;2022-11-04T05:16:01;7.90;99.90
19397;DHT22;9834;48.076;11.878;2022-11-04T05:18:34;8.00;99.90
19397;DHT22;9834;48.076;11.878;2022-11-04T05:21:03;7.90;99.90
19397;DHT22;9834;48.076;11.878;2022-11-04T05:23:30;7.90;99.90
19397;DHT22;9834;48.076;11.878;2022-11-04T05:25:59;7.80;99.90
19397;DHT22;9834;48.076;11.878;2022-11-04T05:28:26;7.80;99.90
19397;DHT22;9834;48.076;11.878;2022-11-04T05:30:53;7.80;99.90
19397;DHT22;9834;48.076;11.878;2022-11-04T05:33:20;7.80;99.90
19397;DHT22;9834;48.076;11.878;2022-11-04T05:35:47;7.80;99.90
19397;DHT22;9834;48.076;11.878;2022-11-04T05:38:14;7.70;99.90
19397;DHT22;9834;48.076;11.878;2022-11-04T05:40:41;7.70;99.90
19397;DHT22;9834;48.076;11.878;2022-11-04T05:43:09;7.70;99.90
19397;DHT22;9834;48.076;11.878;2022-11-04T05:45:36;7.70;99.90
19397;DHT22;9834;48.076;11.878;2022-11-04T05:48:04;7.80;99.90
19397;DHT22;9834;48.076;11.878;2022-11-04T05:50:32;7.70;99.90
19397;DHT22;9834;48.076;11.878;2022-11-04T05:53:00;7.70;99.90
19397;DHT22;9834;48.076;11.878;2022-11-04T05:55:27;7.70;99.90
19397;DHT22;9834;48.076;11.878;2022-11-04T05:57:54;7.70;99.90
19397;DHT22;9834;48.076;11.878;2022-11-04T06:00:24;7.70;99.90
19397;DHT22;9834;48.076;11.878;2022-11-04T06:02:55;7.70;99.90
19397;DHT22;9834;48.076;11.878;2022-11-04T06:05:23;7.70;99.90
19397;DHT22;9834;48.076;11.878;2022-11-04T06:07:50;7.70;99.90
19397;DHT22;9834;48.076;11.878;2022-11-04T06:10:18;7.70;99.90
19397;DHT22;9834;48.076;11.878;2022-11-04T06:12:45;7.70;99.90
19397;DHT22;9834;48.076;11.878;2022-11-04T06:15:12;7.70;99.90
19397;DHT22;9834;48.076;11.878;2022-11-04T06:17:41;7.70;99.90
19397;DHT22;9834;48.076;11.878;2022-11-04T06:20:09;7.70;99.90
19397;DHT22;9834;48.076;11.878;2022-11-04T06:22:37;7.70;99.90
19397;DHT22;9834;48.076;11.878;2022-11-04T06:25:05;7.80;99.90
19397;DHT22;9834;48.076;11.878;2022-11-04T06:27:47;7.70;99.90
19397;DHT22;9834;48.076;11.878;2022-11-04T06:30:20;7.70;99.90
19397;DHT22;9834;48.076;11.878;2022-11-04T06:32:52;7.70;99.90
19397;DHT22;9834;48.076;11.878;2022-11-04T06:35:19;7.60;99.90
19397;DHT22;9834;48.076;11.878;2022-11-04T06:37:47;7.60;99.90
19397;DHT22;9834;48.076;11.878;2022-11-04T06:40:14;7.70;99.90
19397;DHT22;9834;48.076;11.878;2022-11-04T06:42:42;7.60;99.90
19397;DHT22;9834;48.076;11.878;2022-11-04T06:45:09;7.60;99.90
19397;DHT22;9834;48.076;11.878;2022-11-04T06:47:37;7.60;99.90
19397;DHT22;9834;48.076;11.878;2022-11-04T06:50:06;7.60;99.90
19397;DHT22;9834;48.076;11.878;2022-11-04T06:52:33;7.60;99.90
19397;DHT22;9834;48.076;11.878;2022-11-04T06:55:00;7.60;99.90
19397;DHT22;9834;48.076;11.878;2022-11-04T06:57:27;7.50;99.90
19397;DHT22;9834;48.076;11.878;2022-11-04T06:59:54;7.40;99.90
19397;DHT22;9834;48.076;11.878;2022-11-04T07:02:20;7.40;99.90
19397;DHT22;9834;48.076;11.878;2022-11-04T07:04:47;7.40;99.90
19397;DHT22;9834;48.076;11.878;2022-11-04T07:07:16;7.40;99.90
19397;DHT22;9834;48.076;11.878;2022-11-04T07:09:43;7.40;99.90
19397;DHT22;9834;48.076;11.878;2022-11-04T07:12:13;7.40;99.90
19397;DHT22;9834;48.076;11.878;2022-11-04T07:14:58;7.40;99.90
19397;DHT22;9834;48.076;11.878;2022-11-04T07:17:25;7.40;99.90
19397;DHT22;9834;48.076;11.878;2022-11-04T07:19:52;7.40;99.90
19397;DHT22;9834;48.076;11.878;2022-11-04T07:22:36;7.40;99.90
19397;DHT22;9834;48.076;11.878;2022-11-04T07:25:08;7.40;99.90
19397;DHT22;9834;48.076;11.878;2022-11-04T07:27:35;7.40;99.90
19397;DHT22;9834;48.076;11.878;2022-11-04T07:30:02;7.40;99.90
19397;DHT22;9834;48.076;11.878;2022-11-04T07:32:29;7.40;99.90
19397;DHT22;9834;48.076;11.878;2022-11-04T07:34:56;7.40;99.90
19397;DHT22;9834;48.076;11.878;2022-11-04T07:37:24;7.40;99.90
19397;DHT22;9834;48.076;11.878;2022-11-04T07:39:51;7.40;99.90
19397;DHT22;9834;48.076;11.878;2022-11-04T07:42:18;7.50;99.90
19397;DHT22;9834;48.076;11.878;2022-11-04T07:44:46;7.50;99.90
19397;DHT22;9834;48.076;11.878;2022-11-04T07:47:13;7.50;99.90
19397;DHT22;9834;48.076;11.878;2022-11-04T07:49:40;7.50;99.90
19397;DHT22;9834;48.076;11.878;2022-11-04T07:52:07;7.50;99.90
19397;DHT22;9834;48.076;11.878;2022-11-04T07:54:35;7.40;99.90
19397;DHT22;9834;48.076;11.878;2022-11-04T07:57:02;7.40;99.90
19397;DHT22;9834;48.076;11.878;2022-11-04T07:59:29;7.40;99.90
19397;DHT22;9834;48.076;11.878;2022-11-04T08:01:56;7.40;99.90
19397;DHT22;9834;48.076;11.878;2022-11-04T08:04:23;7.40;99.90
19397;DHT22;9834;48.076;11.878;2022-11-04T08:06:50;7.50;99.90
19397;DHT22;9834;48.076;11.878;2022-11-04T08:09:17;7.60;99.90
19397;DHT22;9834;48.076;11.878;2022-11-04T08:11:45;7.60;99.90
19397;DHT22;9834;48.076;11.878;2022-11-04T08:14:12;7.60;99.90
19397;DHT22;9834;48.076;11.878;2022-11-04T08:16:39;7.60;99.90
19397;DHT22;9834;48.076;11.878;2022-11-04T08:19:06;7.60;99.90
19397;DHT22;9834;48.076;11.878;2022-11-04T08:21:33;7.60;99.90
19397;DHT22;9834;48.076;11.878;2022-11-04T08:24:00;7.60;99.90
19397;DHT22;9834;48.076;11.878;2022-11-04T08:26:30;7.50;99.90
19397;DHT22;9834;48.076;11.878;2022-11-04T08:28:58;7.60;99.90
19397;DHT22;9834;48.076;11.878;2022-11-04T08:31:28;7.70;99.90
19397;DHT22;9834;48.076;11.878;2022-11-04T08:33:56;7.60;99.90
19397;DHT22;9834;48.076;11.878;2022-11-04T08:36:25;7.50;99.90
19397;DHT22;9834;48.076;11.878;2022-11-04T08:38:53;7.70;99.90
19397;DHT22;9834;48.076;11.878;2022-11-04T08:41:22;7.60;99.90
19397;DHT22;9834;48.076;11.878;2022-11-04T08:43:49;7.50;99.90
19397;DHT22;9834;48.076;11.878;2022-11-04T08:46:18;7.50;99.90
19397;DHT22;9834;48.076;11.878;2022-11-04T08:48:45;7.40;99.90
19397;DHT22;9834;48.076;11.878;2022-11-04T08:51:16;7.40;99.90
19397;DHT22;9834;48.076;11.878;2022-11-04T08:53:43;7.40;99.90
19397;DHT22;9834;48.076;11.878;2022-11-04T08:56:12;7.30;99.90
19397;DHT22;9834;48.076;11.878;2022-11-04T08:58:39;7.30;99.90
19397;DHT22;9834;48.076;11.878;2022-11-04T09:01:07;7.20;99.90
19397;DHT22;9834;48.076;11.878;2022-11-04T09:03:37;7.30;99.90
19397;DHT22;9834;48.076;11.878;2022-11-04T09:06:04;7.40;99.90
19397;DHT22;9834;48.076;11.878;2022-11-04T09:08:31;7.30;99.90
19397;DHT22;9834;48.076;11.878;2022-11-04T09:10:58;7.20;99.90
19397;DHT22;9834;48.076;11.878;2022-11-04T09:13:26;7.20;99.90
19397;DHT22;9834;48.076;11.878;2022-11-04T09:15:53;7.30;99.90
19397;DHT22;9834;48.076;11.878;2022-11-04T09:18:20;7.30;99.90
19397;DHT22;9834;48.076;11.878;2022-11-04T09:20:48;7.30;99.90
19397;DHT22;9834;48.076;11.878;2022-11-04T09:23:15;7.30;99.90
19397;DHT22;9834;48.076;11.878;2022-11-04T09:25:42;7.30;99.90
19397;DHT22;9834;48.076;11.878;2022-11-04T09:28:10;7.30;99.90
19397;DHT22;9834;48.076;11.878;2022-11-04T09:30:37;7.40;99.90
19397;DHT22;9834;48.076;11.878;2022-11-04T09:33:04;7.50;99.90
19397;DHT22;9834;48.076;11.878;2022-11-04T09:35:31;7.60;99.90
19397;DHT22;9834;48.076;11.878;2022-11-04T09:38:00;7.60;99.90
19397;DHT22;9834;48.076;11.878;2022-11-04T09:40:27;7.80;99.90
19397;DHT22;9834;48.076;11.878;2022-11-04T09:43:03;7.80;99.90
19397;DHT22;9834;48.076;11.878;2022-11-04T09:45:33;7.80;99.90
19397;DHT22;9834;48.076;11.878;2022-11-04T09:48:03;7.70;99.90
19397;DHT22;9834;48.076;11.878;2022-11-04T09:50:36;7.70;99.90
19397;DHT22;9834;48.076;11.878;2022-11-04T09:53:12;7.70;99.90
19397;DHT22;9834;48.076;11.878;2022-11-04T09:55:48;7.70;99.90
19397;DHT22;9834;48.076;11.878;2022-11-04T09:58:16;7.60;99.90
19397;DHT22;9834;48.076;11.878;2022-11-04T10:00:48;7.50;99.90
19397;DHT22;9834;48.076;11.878;2022-11-04T10:03:35;7.50;99.90
19397;DHT22;9834;48.076;11.878;2022-11-04T10:06:17;7.50;99.90
19397;DHT22;9834;48.076;11.878;2022-11-04T10:09:02;7.30;99.90
19397;DHT22;9834;48.076;11.878;2022-11-04T10:11:36;7.20;99.90
19397;DHT22;9834;48.076;11.878;2022-11-04T10:14:29;7.20;99.90
19397;DHT22;9834;48.076;11.878;2022-11-04T10:17:11;7.10;99.90
19397;DHT22;9834;48.076;11.878;2022-11-04T10:19:56;7.10;99.90
19397;DHT22;9834;48.076;11.878;2022-11-04T10:22:30;7.10;99.90
19397;DHT22;9834;48.076;11.878;2022-11-04T10:25:03;7.10;99.90
19397;DHT22;9834;48.076;11.878;2022-11-04T10:27:36;7.10;99.90
19397;DHT22;9834;48.076;11.878;2022-11-04T10:30:06;7.10;99.90
19397;DHT22;9834;48.076;11.878;2022-11-04T10:32:38;7.20;99.90
19397;DHT22;9834;48.076;11.878;2022-11-04T10:35:21;7.10;99.90
19397;DHT22;9834;48.076;11.878;2022-11-04T10:37:52;7.10;99.90
19397;DHT22;9834;48.076;11.878;2022-11-04T10:40:24;7.20;99.90
19397;DHT22;9834;48.076;11.878;2022-11-04T10:42:54;7.30;99.90
19397;DHT22;9834;48.076;11.878;2022-11-04T10:45:30;7.40;99.90
19397;DHT22;9834;48.076;11.878;2022-11-04T10:48:02;7.40;99.90
19397;DHT22;9834;48.076;11.878;2022-11-04T10:50:34;7.40;99.90
19397;DHT22;9834;48.076;11.878;2022-11-04T10:53:14;7.30;99.90
19397;DHT22;9834;48.076;11.878;2022-11-04T10:55:48;7.20;99.90
19397;DHT22;9834;48.076;11.878;2022-11-04T10:58:20;7.20;99.90
19397;DHT22;9834;48.076;11.878;2022-11-04T11:00:47;7.20;99.90
19397;DHT22;9834;48.076;11.878;2022-11-04T11:03:26;7.20;99.90
19397;DHT22;9834;48.076;11.878;2022-11-04T11:06:11;7.10;99.90
19397;DHT22;9834;48.076;11.878;2022-11-04T11:08:39;7.10;99.90
19397;DHT22;9834;48.076;11.878;2022-11-04T11:11:09;7.20;99.90
19397;DHT22;9834;48.076;11.878;2022-11-04T11:13:38;7.20;99.90
19397;DHT22;9834;48.076;11.878;2022-11-04T11:16:11;7.20;99.90
19397;DHT22;9834;48.076;11.878;2022-11-04T11:18:38;7.30;99.90
19397;DHT22;9834;48.076;11.878;2022-11-04T11:21:11;7.20;99.90
19397;DHT22;9834;48.076;11.878;2022-11-04T11:23:41;7.30;99.90
19397;DHT22;9834;48.076;11.878;2022-11-04T11:26:12;7.40;99.90
19397;DHT22;9834;48.076;11.878;2022-11-04T11:28:40;7.40;99.90
19397;DHT22;9834;48.076;11.878;2022-11-04T11:31:13;7.40;99.90
19397;DHT22;9834;48.076;11.878;2022-11-04T11:33:50;7.40;99.90
19397;DHT22;9834;48.076;11.878;2022-11-04T11:36:21;7.40;99.90
19397;DHT22;9834;48.076;11.878;2022-11-04T11:39:13;7.40;99.90
19397;DHT22;9834;48.076;11.878;2022-11-04T11:41:52;7.40;99.90
19397;DHT22;9834;48.076;11.878;2022-11-04T11:44:25;7.20;99.90
19397;DHT22;9834;48.076;11.878;2022-11-04T11:46:54;7.20;99.90
19397;DHT22;9834;48.076;11.878;2022-11-04T11:49:24;7.20;99.90
19397;DHT22;9834;48.076;11.878;2022-11-04T11:51:52;7.30;99.90
19397;DHT22;9834;48.076;11.878;2022-11-04T11:54:22;7.30;99.90
19397;DHT22;9834;48.076;11.878;2022-11-04T11:56:54;7.40;99.90
19397;DHT22;9834;48.076;11.878;2022-11-04T11:59:25;7.40;99.90
19397;DHT22;9834;48.076;11.878;2022-11-04T12:02:03;7.40;99.90
19397;DHT22;9834;48.076;11.878;2022-11-04T12:04:38;7.40;99.90
19397;DHT22;9834;48.076;11.878;2022-11-04T12:07:12;7.40;99.90
19397;DHT22;9834;48.076;11.878;2022-11-04T12:09:47;7.30;99.90
19397;DHT22;9834;48.076;11.878;2022-11-04T12:12:26;7.30;99.90
19397;DHT22;9834;48.076;11.878;2022-11-04T12:15:16;7.20;99.90
19397;DHT22;9834;48.076;11.878;2022-11-04T12:17:53;7.20;99.90
19397;DHT22;9834;48.076;11.878;2022-11-04T12:20:34;7.10;99.90
19397;DHT22;9834;48.076;11.878;2022-11-04T12:23:11;7.00;99.90
19397;DHT22;9834;48.076;11.878;2022-11-04T12:25:45;7.10;99.90
19397;DHT22;9834;48.076;11.878;2022-11-04T12:28:24;7.10;99.90
19397;DHT22;9834;48.076;11.878;2022-11-04T12:31:00;7.10;99.90
19397;DHT22;9834;48.076;11.878;2022-11-04T12:33:34;7.20;99.90
19397;DHT22;9834;48.076;11.878;2022-11-04T12:36:13;7.40;99.90
19397;DHT22;9834;48.076;11.878;2022-11-04T12:38:54;7.40;99.90
19397;DHT22;9834;48.076;11.878;2022-11-04T12:41:27;7.50;99.90
19397;DHT22;9834;48.076;11.878;2022-11-04T12:44:07;7.70;99.90
19397;DHT22;9834;48.076;11.878;2022-11-04T12:46:46;7.80;99.90
19397;DHT22;9834;48.076;11.878;2022-11-04T12:49:33;7.80;99.90
19397;DHT22;9834;48.076;11.878;2022-11-04T12:52:10;7.70;99.90
19397;DHT22;9834;48.076;11.878;2022-11-04T12:54:50;7.50;99.90
19397;DHT22;9834;48.076;11.878;2022-11-04T12:57:24;7.50;99.90
19397;DHT22;9834;48.076;11.878;2022-11-04T13:00:13;7.40;99.90
19397;DHT22;9834;48.076;11.878;2022-11-04T13:02:46;7.40;99.90
19397;DHT22;9834;48.076;11.878;2022-11-04T13:05:26;7.30;99.90
19397;DHT22;9834;48.076;11.878;2022-11-04T13:07:57;7.20;99.90
19397;DHT22;9834;48.076;11.878;2022-11-04T13:10:33;7.10;99.90
19397;DHT22;9834;48.076;11.878;2022-11-04T13:13:05;7.10;99.90
19397;DHT22;9834;48.076;11.878;2022-11-04T13:15:42;7.10;99.90
19397;DHT22;9834;48.076;11.878;2022-11-04T13:18:12;7.10;99.90
19397;DHT22;9834;48.076;11.878;2022-11-04T13:20:43;7.10;99.90
19397;DHT22;9834;48.076;11.878;2022-11-04T13:23:16;7.10;99.90
19397;DHT22;9834;48.076;11.878;2022-11-04T13:25:45;7.20;99.90
19397;DHT22;9834;48.076;11.878;2022-11-04T13:28:14;7.00;99.90
19397;DHT22;9834;48.076;11.878;2022-11-04T13:30:49;7.00;99.90
19397;DHT22;9834;48.076;11.878;2022-11-04T13:33:24;6.90;99.90
19397;DHT22;9834;48.076;11.878;2022-11-04T13:35:57;6.90;99.90
19397;DHT22;9834;48.076;11.878;2022-11-04T13:38:31;7.00;99.90
19397;DHT22;9834;48.076;11.878;2022-11-04T13:41:18;7.10;99.90
19397;DHT22;9834;48.076;11.878;2022-11-04T13:43:47;7.00;99.90
19397;DHT22;9834;48.076;11.878;2022-11-04T13:46:23;7.00;99.90
19397;DHT22;9834;48.076;11.878;2022-11-04T13:48:59;7.00;99.90
19397;DHT22;9834;48.076;11.878;2022-11-04T13:51:34;7.00;99.90
19397;DHT22;9834;48.076;11.878;2022-11-04T13:54:03;7.00;99.90
19397;DHT22;9834;48.076;11.878;2022-11-04T13:56:32;7.00;99.90
19397;DHT22;9834;48.076;11.878;2022-11-04T13:59:03;6.90;99.90
19397;DHT22;9834;48.076;11.878;2022-11-04T14:01:33;6.80;99.90
19397;DHT22;9834;48.076;11.878;2022-11-04T14:04:16;6.80;99.90
19397;DHT22;9834;48.076;11.878;2022-11-04T14:06:52;6.90;99.90
19397;DHT22;9834;48.076;11.878;2022-11-04T14:12:37;6.80;99.90
19397;DHT22;9834;48.076;11.878;2022-11-04T14:18:03;6.80;99.90
19397;DHT22;9834;48.076;11.878;2022-11-04T14:20:33;6.70;99.90
19397;DHT22;9834;48.076;11.878;2022-11-04T14:23:03;6.70;99.90
19397;DHT22;9834;48.076;11.878;2022-11-04T14:25:34;6.70;99.90
19397;DHT22;9834;48.076;11.878;2022-11-04T14:28:15;6.70;99.90
19397;DHT22;9834;48.076;11.878;2022-11-04T14:30:50;6.50;99.90
19397;DHT22;9834;48.076;11.878;2022-11-04T14:33:39;6.50;99.90
19397;DHT22;9834;48.076;11.878;2022-11-04T14:36:16;6.50;99.90
19397;DHT22;9834;48.076;11.878;2022-11-04T14:38:51;6.50;99.90
19397;DHT22;9834;48.076;11.878;2022-11-04T14:41:22;6.50;99.90
19397;DHT22;9834;48.076;11.878;2022-11-04T14:43:57;6.50;99.90
19397;DHT22;9834;48.076;11.878;2022-11-04T14:46:29;6.60;99.90
19397;DHT22;9834;48.076;11.878;2022-11-04T14:48:59;6.70;99.90
19397;DHT22;9834;48.076;11.878;2022-11-04T14:51:28;6.70;99.90
19397;DHT22;9834;48.076;11.878;2022-11-04T14:54:02;6.70;99.90
19397;DHT22;9834;48.076;11.878;2022-11-04T14:56:30;6.60;99.90
19397;DHT22;9834;48.076;11.878;2022-11-04T14:58:58;6.50;99.90
19397;DHT22;9834;48.076;11.878;2022-11-04T15:01:27;6.50;99.90
19397;DHT22;9834;48.076;11.878;2022-11-04T15:03:57;6.50;99.90
19397;DHT22;9834;48.076;11.878;2022-11-04T15:06:31;6.50;99.90
19397;DHT22;9834;48.076;11.878;2022-11-04T15:08:58;6.50;99.90
19397;DHT22;9834;48.076;11.878;2022-11-04T15:11:27;6.50;99.90
19397;DHT22;9834;48.076;11.878;2022-11-04T15:14:15;6.50;99.90
19397;DHT22;9834;48.076;11.878;2022-11-04T15:16:44;6.50;99.90
19397;DHT22;9834;48.076;11.878;2022-11-04T15:19:17;6.50;99.90
19397;DHT22;9834;48.076;11.878;2022-11-04T15:21:47;6.60;99.90
19397;DHT22;9834;48.076;11.878;2022-11-04T15:24:15;6.60;99.90
19397;DHT22;9834;48.076;11.878;2022-11-04T15:26:48;6.50;99.90
19397;DHT22;9834;48.076;11.878;2022-11-04T15:29:16;6.50;99.90
19397;DHT22;9834;48.076;11.878;2022-11-04T15:31:52;6.50;99.90
19397;DHT22;9834;48.076;11.878;2022-11-04T15:34:19;6.50;99.90
19397;DHT22;9834;48.076;11.878;2022-11-04T15:36:48;6.40;99.90
19397;DHT22;9834;48.076;11.878;2022-11-04T15:39:19;6.50;99.90
19397;DHT22;9834;48.076;11.878;2022-11-04T15:41:48;6.50;99.90
19397;DHT22;9834;48.076;11.878;2022-11-04T15:44:35;6.40;99.90
19397;DHT22;9834;48.076;11.878;2022-11-04T15:47:20;6.30;99.90
19397;DHT22;9834;48.076;11.878;2022-11-04T15:49:49;6.30;99.90
19397;DHT22;9834;48.076;11.878;2022-11-04T15:52:20;6.20;99.90
19397;DHT22;9834;48.076;11.878;2022-11-04T15:54:49;6.30;99.90
19397;DHT22;9834;48.076;11.878;2022-11-04T15:57:19;6.20;99.90
19397;DHT22;9834;48.076;11.878;2022-11-04T15:59:50;6.20;99.90
19397;DHT22;9834;48.076;11.878;2022-11-04T16:02:25;6.20;99.90
19397;DHT22;9834;48.076;11.878;2022-11-04T16:05:04;6.20;99.90
19397;DHT22;9834;48.076;11.878;2022-11-04T16:07:36;6.20;99.90
19397;DHT22;9834;48.076;11.878;2022-11-04T16:10:22;6.20;99.90
19397;DHT22;9834;48.076;11.878;2022-11-04T16:12:52;6.20;99.90
19397;DHT22;9834;48.076;11.878;2022-11-04T16:15:34;6.20;99.90
19397;DHT22;9834;48.076;11.878;2022-11-04T16:18:04;6.20;99.90
19397;DHT22;9834;48.076;11.878;2022-11-04T16:20:32;6.20;99.90
19397;DHT22;9834;48.076;11.878;2022-11-04T16:23:02;6.20;99.90
19397;DHT22;9834;48.076;11.878;2022-11-04T16:25:32;6.20;99.90
19397;DHT22;9834;48.076;11.878;2022-11-04T16:28:00;6.10;99.90